createdAt,value
2018-07-01T00:00:20.037Z,101094.44
2018-07-01T00:02:51.911Z,101095.69
2018-07-01T00:10:55.173Z,101110.64
2018-07-01T00:13:30.711Z,101102.70
2018-07-01T00:16:03.434Z,101112.11
2018-07-01T00:18:35.369Z,101106.48
2018-07-01T00:21:06.770Z,101113.78
2018-07-01T00:23:43.830Z,101109.67
2018-07-01T00:26:16.090Z,101111.56
2018-07-01T00:28:50.375Z,101112.30
2018-07-01T00:31:22.987Z,101120.67
2018-07-01T00:33:56.075Z,101115.16
2018-07-01T00:36:29.605Z,101120.92
2018-07-01T00:39:01.373Z,101118.27
2018-07-01T00:41:33.155Z,101120.03
2018-07-01T00:44:06.502Z,101120.82
2018-07-01T00:46:43.677Z,101119.46
2018-07-01T00:49:16.768Z,101123.34
2018-07-01T00:51:49.224Z,101122.80
2018-07-01T00:54:20.938Z,101126.17
2018-07-01T00:56:53.282Z,101123.36
2018-07-01T00:59:25.226Z,101125.05
2018-07-01T01:01:57.698Z,101122.70
2018-07-01T01:04:32.455Z,101120.40
2018-07-01T01:07:04.388Z,101123.08
2018-07-01T01:09:49.935Z,101127.53
2018-07-01T01:12:22.950Z,101125.56
2018-07-01T01:14:54.583Z,101123.08
2018-07-01T01:17:25.682Z,101123.86
2018-07-01T01:19:56.684Z,101123.02
2018-07-01T01:22:32.541Z,101120.40
2018-07-01T01:25:05.027Z,101124.70
2018-07-01T01:30:18.045Z,101137.71
2018-07-01T01:32:50.964Z,101125.66
2018-07-01T01:35:23.808Z,101130.34
2018-07-01T01:37:55.521Z,101127.59
2018-07-01T01:40:30.728Z,101134.06
2018-07-01T01:43:07.270Z,101128.45
2018-07-01T01:45:46.949Z,101126.67
2018-07-01T01:48:24.741Z,101124.57
2018-07-01T01:51:01.935Z,101122.47
2018-07-01T01:53:46.177Z,101124.76
2018-07-01T01:56:24.275Z,101121.95
2018-07-01T01:59:01.667Z,101126.52
2018-07-01T02:01:45.717Z,101124.24
2018-07-01T02:04:27.645Z,101121.30
2018-07-01T02:07:03.447Z,101120.67
2018-07-01T02:09:41.874Z,101120.63
2018-07-01T02:12:14.910Z,101117.70
2018-07-01T02:14:49.994Z,101125.37
2018-07-01T02:17:26.446Z,101122.77
2018-07-01T02:19:57.879Z,101116.70
2018-07-01T02:22:37.184Z,101118.27
2018-07-01T02:25:19.864Z,101126.02
2018-07-01T02:27:52.627Z,101130.81
2018-07-01T02:30:24.497Z,101134.91
2018-07-01T02:32:56.517Z,101139.95
2018-07-01T02:35:29.545Z,101150.52
2018-07-01T02:38:00.515Z,101153.80
2018-07-01T02:40:31.970Z,101156.20
2018-07-01T02:43:03.830Z,101153.91
2018-07-01T02:45:35.966Z,101159.11
2018-07-01T02:48:06.893Z,101161.84
2018-07-01T02:50:38.514Z,101160.36
2018-07-01T02:53:08.833Z,101159.19
2018-07-01T02:55:39.968Z,101165.94
2018-07-01T02:58:11.513Z,101159.27
2018-07-01T03:00:42.645Z,101164.69
2018-07-01T03:03:14.215Z,101166.19
2018-07-01T03:05:44.843Z,101168.38
2018-07-01T03:08:16.054Z,101164.77
2018-07-01T03:10:46.977Z,101166.97
2018-07-01T03:13:17.421Z,101166.53
2018-07-01T03:18:18.628Z,101173.09
2018-07-01T03:20:49.563Z,101172.06
2018-07-01T03:23:20.547Z,101179.37
2018-07-01T03:25:51.663Z,101182.22
2018-07-01T03:28:22.380Z,101176.92
2018-07-01T03:30:52.673Z,101184.02
2018-07-01T03:33:24.941Z,101184.16
2018-07-01T03:35:55.384Z,101187.64
2018-07-01T03:38:25.656Z,101182.84
2018-07-01T03:40:56.201Z,101180.02
2018-07-01T03:43:26.702Z,101187.96
2018-07-01T03:45:57.758Z,101185.70
2018-07-01T03:48:28.916Z,101181.30
2018-07-01T03:51:14.648Z,101183.24
2018-07-01T03:53:48.648Z,101178.59
2018-07-01T03:59:05.494Z,101177.45
2018-07-01T04:01:37.131Z,101176.46
2018-07-01T04:04:07.485Z,101175.17
2018-07-01T04:06:40.191Z,101170.10
2018-07-01T04:09:12.455Z,101168.61
2018-07-01T04:11:49.353Z,101168.35
2018-07-01T04:14:20.427Z,101168.16
2018-07-01T04:16:51.077Z,101164.94
2018-07-01T04:19:27.202Z,101170.60
2018-07-01T04:21:58.840Z,101170.92
2018-07-01T04:24:31.655Z,101173.14
2018-07-01T04:27:02.726Z,101173.19
2018-07-01T04:29:33.416Z,101173.41
2018-07-01T04:32:04.769Z,101170.50
2018-07-01T04:34:35.506Z,101171.21
2018-07-01T04:37:06.805Z,101169.88
2018-07-01T04:39:37.835Z,101159.10
2018-07-01T04:42:09.369Z,101166.35
2018-07-01T04:44:41.174Z,101168.52
2018-07-01T04:47:12.354Z,101172.58
2018-07-01T04:49:43.670Z,101168.87
2018-07-01T04:52:15.575Z,101166.41
2018-07-01T04:54:46.428Z,101162.33
2018-07-01T04:57:18.052Z,101160.16
2018-07-01T04:59:48.271Z,101162.57
2018-07-01T05:02:24.056Z,101167.79
2018-07-01T05:04:54.317Z,101175.65
2018-07-01T05:07:27.468Z,101178.39
2018-07-01T05:09:58.584Z,101184.97
2018-07-01T05:12:28.848Z,101186.21
2018-07-01T05:14:59.463Z,101194.79
2018-07-01T05:17:30.452Z,101186.63
2018-07-01T05:20:01.419Z,101185.87
2018-07-01T05:22:32.232Z,101183.95
2018-07-01T05:25:02.503Z,101192.53
2018-07-01T05:27:34.485Z,101192.58
2018-07-01T05:30:07.917Z,101180.73
2018-07-01T05:32:43.081Z,101186.37
2018-07-01T05:35:15.597Z,101189.41
2018-07-01T05:37:48.376Z,101179.52
2018-07-01T05:40:19.129Z,101194.36
2018-07-01T05:42:50.186Z,101194.85
2018-07-01T05:45:22.679Z,101201.64
2018-07-01T05:47:53.209Z,101203.03
2018-07-01T05:50:24.690Z,101206.84
2018-07-01T05:52:56.077Z,101201.82
2018-07-01T05:55:26.858Z,101208.95
2018-07-01T05:57:59.828Z,101215.48
2018-07-01T06:00:30.701Z,101206.52
2018-07-01T06:03:01.223Z,101208.16
2018-07-01T06:05:31.788Z,101212.67
2018-07-01T06:08:03.178Z,101207.67
2018-07-01T06:10:33.629Z,101205.91
2018-07-01T06:13:04.564Z,101213.08
2018-07-01T06:15:37.506Z,101224.30
2018-07-01T06:18:08.079Z,101222.98
2018-07-01T06:20:39.591Z,101221.45
2018-07-01T06:23:09.879Z,101221.72
2018-07-01T06:25:50.773Z,101226.80
2018-07-01T06:28:25.615Z,101219.78
2018-07-01T06:30:56.380Z,101235.17
2018-07-01T06:33:27.202Z,101218.36
2018-07-01T06:36:00.452Z,101229.22
2018-07-01T06:38:32.623Z,101222.12
2018-07-01T06:41:04.277Z,101226.30
2018-07-01T06:43:36.873Z,101228.60
2018-07-01T06:46:08.383Z,101233.52
2018-07-01T06:48:42.683Z,101231.41
2018-07-01T06:51:13.781Z,101233.40
2018-07-01T06:53:45.570Z,101242.89
2018-07-01T06:56:18.677Z,101242.14
2018-07-01T06:58:51.216Z,101234.16
2018-07-01T07:01:25.280Z,101236.57
2018-07-01T07:03:57.245Z,101246.51
2018-07-01T07:06:29.030Z,101257.22
2018-07-01T07:08:59.716Z,101267.80
2018-07-01T07:11:31.298Z,101238.48
2018-07-01T07:14:02.285Z,101247.20
2018-07-01T07:16:36.804Z,101254.80
2018-07-01T07:19:10.669Z,101252.24
2018-07-01T07:21:41.655Z,101262.77
2018-07-01T07:24:11.909Z,101258.58
2018-07-01T07:26:46.468Z,101264.37
2018-07-01T07:29:16.782Z,101247.81
2018-07-01T07:31:51.664Z,101251.38
2018-07-01T07:34:22.138Z,101258.66
2018-07-01T07:36:52.597Z,101257.53
2018-07-01T07:39:26.628Z,101255.48
2018-07-01T07:41:56.914Z,101240.31
2018-07-01T07:44:28.720Z,101265.38
2018-07-01T07:46:59.753Z,101246.04
2018-07-01T07:49:30.688Z,101255.13
2018-07-01T07:52:01.563Z,101255.31
2018-07-01T07:54:32.607Z,101257.97
2018-07-01T07:57:02.909Z,101263.61
2018-07-01T07:59:33.888Z,101255.86
2018-07-01T08:02:05.883Z,101252.22
2018-07-01T08:04:37.889Z,101257.59
2018-07-01T08:07:10.172Z,101256.99
2018-07-01T08:09:41.330Z,101253.19
2018-07-01T08:12:13.565Z,101265.89
2018-07-01T08:14:43.872Z,101253.27
2018-07-01T08:17:15.600Z,101265.17
2018-07-01T08:19:49.794Z,101259.70
2018-07-01T08:22:20.326Z,101256.28
2018-07-01T08:24:52.677Z,101273.92
2018-07-01T08:27:23.148Z,101267.03
2018-07-01T08:29:53.464Z,101271.30
2018-07-01T08:32:26.373Z,101281.22
2018-07-01T08:34:57.575Z,101272.78
2018-07-01T08:37:31.480Z,101270.58
2018-07-01T08:40:05.226Z,101268.63
2018-07-01T08:42:39.101Z,101267.36
2018-07-01T08:45:14.601Z,101271.95
2018-07-01T08:47:50.005Z,101271.81
2018-07-01T08:50:28.741Z,101268.34
2018-07-01T08:53:00.385Z,101273.48
2018-07-01T08:55:33.575Z,101274.51
2018-07-01T08:58:04.581Z,101272.73
2018-07-01T09:00:44.800Z,101272.23
2018-07-01T09:03:16.156Z,101265.81
2018-07-01T09:05:48.932Z,101265.97
2018-07-01T09:08:23.675Z,101266.41
2018-07-01T09:10:55.202Z,101275.17
2018-07-01T09:13:26.663Z,101285.17
2018-07-01T09:15:59.451Z,101273.00
2018-07-01T09:21:32.043Z,101263.03
2018-07-01T09:24:04.432Z,101259.56
2018-07-01T09:26:44.812Z,101257.58
2018-07-01T09:29:21.915Z,101263.48
2018-07-01T09:31:56.070Z,101201.23
2018-07-01T09:34:30.509Z,101253.72
2018-07-01T09:37:09.828Z,101265.25
2018-07-01T09:39:44.285Z,101257.70
2018-07-01T09:42:15.929Z,101249.67
2018-07-01T09:44:50.389Z,101252.91
2018-07-01T09:47:24.914Z,101252.45
2018-07-01T09:49:59.950Z,101251.63
2018-07-01T09:52:40.350Z,101254.63
2018-07-01T09:55:23.461Z,101245.41
2018-07-01T09:58:03.897Z,101244.46
2018-07-01T10:00:44.306Z,101253.84
2018-07-01T10:03:20.135Z,101239.80
2018-07-01T10:05:53.644Z,101240.37
2018-07-01T10:08:29.291Z,101230.98
2018-07-01T10:11:07.320Z,101227.70
2018-07-01T10:13:47.526Z,101223.77
2018-07-01T10:16:24.263Z,101225.26
2018-07-01T10:19:03.624Z,101239.34
2018-07-01T10:21:43.216Z,101234.63
2018-07-01T10:24:14.777Z,101224.02
2018-07-01T10:26:54.516Z,101227.29
2018-07-01T10:29:26.756Z,101232.70
2018-07-01T10:35:41.371Z,101227.39
2018-07-01T10:38:14.761Z,101225.67
2018-07-01T10:40:51.461Z,101223.30
2018-07-01T10:43:31.203Z,101224.14
2018-07-01T10:46:10.485Z,101228.00
2018-07-01T10:49:04.604Z,101210.90
2018-07-01T10:51:41.302Z,101210.39
2018-07-01T10:54:14.240Z,101216.81
2018-07-01T10:56:52.819Z,101218.58
2018-07-01T10:59:27.470Z,101168.23
2018-07-01T11:01:58.674Z,101201.22
2018-07-01T11:04:35.594Z,101200.13
2018-07-01T11:07:08.004Z,101184.61
2018-07-01T11:09:53.264Z,101191.59
2018-07-01T11:12:26.342Z,101187.76
2018-07-01T11:15:04.944Z,101193.50
2018-07-01T11:17:44.244Z,101176.16
2018-07-01T11:20:20.948Z,101189.50
2018-07-01T11:22:57.069Z,101175.59
2018-07-01T11:25:35.175Z,101181.55
2018-07-01T11:28:09.438Z,101184.33
2018-07-01T11:30:48.775Z,101166.59
2018-07-01T11:33:29.935Z,101169.19
2018-07-01T11:36:14.467Z,101164.44
2018-07-01T11:38:56.940Z,101164.72
2018-07-01T11:41:38.813Z,101163.48
2018-07-01T11:44:13.721Z,101166.11
2018-07-01T11:46:58.502Z,101148.66
2018-07-01T11:49:35.536Z,101153.72
2018-07-01T11:52:26.549Z,101151.47
2018-07-01T11:57:50.836Z,101151.75
2018-07-01T12:00:27.224Z,101159.17
2018-07-01T12:03:01.008Z,101158.94
2018-07-01T12:05:36.262Z,101151.76
2018-07-01T12:10:58.425Z,101153.72
2018-07-01T12:13:37.770Z,101153.34
2018-07-01T12:16:10.357Z,101153.43
2018-07-01T12:18:58.299Z,101113.92
2018-07-01T12:27:04.732Z,101146.17
2018-07-01T12:29:38.874Z,101130.39
2018-07-01T12:32:26.225Z,101134.48
2018-07-01T12:35:03.399Z,101126.80
2018-07-01T12:37:37.296Z,101130.77
2018-07-01T12:40:12.485Z,101135.46
2018-07-01T12:42:47.280Z,101134.66
2018-07-01T12:45:19.503Z,101122.50
2018-07-01T12:47:52.937Z,101121.88
2018-07-01T12:50:25.346Z,101118.48
2018-07-01T12:55:43.358Z,101108.80
2018-07-01T12:58:14.706Z,101117.49
2018-07-01T13:00:47.450Z,101114.00
2018-07-01T13:03:20.392Z,101115.86
2018-07-01T13:05:53.567Z,101110.77
2018-07-01T13:08:25.953Z,101104.97
2018-07-01T13:11:06.423Z,101106.66
2018-07-01T13:13:39.393Z,101105.30
2018-07-01T13:16:12.617Z,101107.16
2018-07-01T13:18:43.877Z,101092.98
2018-07-01T13:21:14.284Z,101098.97
2018-07-01T13:23:46.621Z,101094.35
2018-07-01T13:26:18.467Z,101092.16
2018-07-01T13:28:54.347Z,101089.36
2018-07-01T13:31:30.510Z,101086.84
2018-07-01T13:34:01.222Z,101083.58
2018-07-01T13:36:42.372Z,101076.64
2018-07-01T13:39:37.368Z,101076.33
2018-07-01T13:42:12.254Z,101073.63
2018-07-01T13:44:44.420Z,101067.32
2018-07-01T13:47:20.625Z,101062.59
2018-07-01T13:49:58.564Z,101068.12
2018-07-01T13:52:30.285Z,101066.46
2018-07-01T13:55:01.952Z,101050.41
2018-07-01T13:57:36.299Z,101054.53
2018-07-01T14:00:18.766Z,101048.81
2018-07-01T14:02:55.927Z,101047.38
2018-07-01T14:13:41.553Z,101046.83
2018-07-01T14:16:15.206Z,101043.58
2018-07-01T14:18:48.853Z,101050.46
2018-07-01T14:21:36.058Z,101043.58
2018-07-01T14:24:12.947Z,101037.78
2018-07-01T14:26:44.743Z,101044.05
2018-07-01T14:31:57.736Z,101032.80
2018-07-01T14:34:29.325Z,101038.33
2018-07-01T14:37:05.874Z,101035.55
2018-07-01T14:39:40.928Z,101034.19
2018-07-01T14:44:55.803Z,101031.64
2018-07-01T14:47:32.881Z,101033.53
2018-07-01T14:50:12.182Z,101031.05
2018-07-01T14:52:52.223Z,101032.23
2018-07-01T14:58:49.842Z,101024.14
2018-07-01T15:01:22.457Z,101033.43
2018-07-01T15:03:57.043Z,101019.92
2018-07-01T15:06:29.602Z,101021.65
2018-07-01T15:09:00.057Z,101022.48
2018-07-01T15:11:33.363Z,101012.29
2018-07-01T15:14:06.878Z,101012.59
2018-07-01T15:16:38.353Z,101006.23
2018-07-01T15:19:08.846Z,101007.13
2018-07-01T15:21:40.778Z,101000.45
2018-07-01T15:24:17.342Z,101009.70
2018-07-01T15:26:49.961Z,101002.02
2018-07-01T15:29:20.372Z,100995.77
2018-07-01T15:31:52.364Z,101007.61
2018-07-01T15:34:25.688Z,101000.88
2018-07-01T15:36:58.318Z,100990.30
2018-07-01T15:39:30.324Z,100994.49
2018-07-01T15:42:03.284Z,100989.13
2018-07-01T15:44:36.085Z,100991.83
2018-07-01T15:47:15.361Z,100990.72
2018-07-01T15:49:45.735Z,100991.03
2018-07-01T15:52:18.578Z,100973.55
2018-07-01T15:54:48.980Z,100983.92
2018-07-01T15:57:20.475Z,100981.00
2018-07-01T15:59:55.416Z,100984.67
2018-07-01T16:02:28.472Z,100983.75
2018-07-01T16:04:59.830Z,100977.39
2018-07-01T16:07:31.382Z,100979.63
2018-07-01T16:10:05.984Z,100973.05
2018-07-01T16:12:40.494Z,100971.89
2018-07-01T16:15:17.296Z,100975.89
2018-07-01T16:17:50.758Z,100985.98
2018-07-01T16:20:29.820Z,100977.22
2018-07-01T16:23:00.725Z,100977.43
2018-07-01T16:25:44.497Z,100974.80
2018-07-01T16:30:29.091Z,100974.52
2018-07-01T16:33:03.360Z,100983.70
2018-07-01T16:35:36.231Z,100977.51
2018-07-01T16:38:16.585Z,100975.34
2018-07-01T16:40:50.181Z,100976.02
2018-07-01T16:43:24.377Z,100982.41
2018-07-01T16:46:10.565Z,100974.59
2018-07-01T16:48:42.959Z,100980.02
2018-07-01T16:51:33.275Z,100974.05
2018-07-01T16:54:10.980Z,100981.95
2018-07-01T16:56:50.829Z,100984.07
2018-07-01T16:59:32.605Z,100979.29
2018-07-01T17:02:08.470Z,100972.37
2018-07-01T17:04:44.465Z,100969.98
2018-07-01T17:07:18.068Z,100967.10
2018-07-01T17:09:57.087Z,100972.55
2018-07-01T17:12:30.894Z,100978.58
2018-07-01T17:15:06.333Z,100981.19
2018-07-01T17:20:17.654Z,100980.20
2018-07-01T17:26:09.514Z,100985.05
2018-07-01T17:29:36.653Z,100980.92
2018-07-01T17:34:21.030Z,100970.09
2018-07-01T17:36:55.817Z,100981.41
2018-07-01T17:39:27.921Z,100979.81
2018-07-01T17:42:04.134Z,100983.45
2018-07-01T17:44:35.724Z,100982.37
2018-07-01T17:47:07.051Z,100977.13
2018-07-01T17:49:38.057Z,100978.98
2018-07-01T17:52:10.462Z,100972.94
2018-07-01T17:54:41.956Z,100972.75
2018-07-01T17:57:14.447Z,100975.39
2018-07-01T17:59:46.495Z,100986.45
2018-07-01T18:02:20.164Z,100980.13
2018-07-01T18:05:01.688Z,100975.48
2018-07-01T18:07:34.612Z,100976.33
2018-07-01T18:10:06.967Z,100980.67
2018-07-01T18:12:40.706Z,100974.34
2018-07-01T18:15:23.788Z,100978.31
2018-07-01T18:17:56.805Z,100977.87
2018-07-01T18:20:32.132Z,100975.87
2018-07-01T18:23:35.853Z,100972.60
2018-07-01T18:25:44.449Z,100964.78
2018-07-01T18:28:34.109Z,100966.42
2018-07-01T18:30:58.475Z,100969.17
2018-07-01T18:33:30.536Z,100973.41
2018-07-01T18:36:05.639Z,100976.63
2018-07-01T18:38:42.587Z,100976.73
2018-07-01T18:41:14.753Z,100974.91
2018-07-01T18:43:46.787Z,100966.70
2018-07-01T18:46:19.847Z,100974.50
2018-07-01T18:54:22.681Z,100969.41
2018-07-01T18:56:55.147Z,100978.77
2018-07-01T18:59:25.818Z,100981.20
2018-07-01T19:01:59.255Z,100981.20
2018-07-01T19:04:32.185Z,100980.88
2018-07-01T19:07:19.858Z,100988.04
2018-07-01T19:10:02.865Z,100985.75
2018-07-01T19:12:36.526Z,100983.36
2018-07-01T19:15:14.611Z,99843.91
2018-07-01T19:17:48.424Z,100990.88
2018-07-01T19:20:21.377Z,100990.72
2018-07-01T19:22:53.776Z,100991.36
2018-07-01T19:25:25.483Z,100994.33
2018-07-01T19:27:57.203Z,100991.55
2018-07-01T19:30:30.825Z,101000.31
2018-07-01T19:35:53.387Z,101012.50
2018-07-01T19:38:25.561Z,101017.55
2018-07-01T19:41:00.169Z,101013.03
2018-07-01T19:43:31.828Z,101014.02
2018-07-01T19:46:04.814Z,101016.63
2018-07-01T19:48:37.392Z,101016.66
2018-07-01T19:51:11.600Z,101017.86
2018-07-01T19:54:17.411Z,101023.15
2018-07-01T19:57:06.066Z,101019.63
2018-07-01T19:59:37.239Z,101021.34
2018-07-01T20:02:23.261Z,101032.05
2018-07-01T20:05:02.622Z,101032.23
2018-07-01T20:07:37.463Z,101033.77
2018-07-01T20:10:14.601Z,101033.02
2018-07-01T20:12:52.778Z,101036.19
2018-07-01T20:15:36.466Z,101033.94
2018-07-01T20:18:13.528Z,101035.48
2018-07-01T20:20:46.706Z,101037.77
2018-07-01T20:23:24.833Z,101043.02
2018-07-01T20:25:59.694Z,101049.31
2018-07-01T20:28:33.988Z,101046.56
2018-07-01T20:31:23.115Z,101054.01
2018-07-01T20:36:42.113Z,101049.39
2018-07-01T20:39:21.259Z,101053.00
2018-07-01T20:41:58.342Z,101055.73
2018-07-01T20:44:32.445Z,101060.12
2018-07-01T20:47:09.813Z,101061.89
2018-07-01T20:49:41.453Z,101064.08
2018-07-01T20:52:13.408Z,101063.30
2018-07-01T20:54:50.439Z,101063.70
2018-07-01T20:57:24.740Z,101064.34
2018-07-01T21:00:06.751Z,101067.98
2018-07-01T21:02:41.418Z,101064.91
2018-07-01T21:05:12.977Z,101063.89
2018-07-01T21:07:49.230Z,101067.08
2018-07-01T21:10:29.560Z,101067.90
2018-07-01T21:13:19.399Z,101071.08
2018-07-01T21:16:51.088Z,101069.92
2018-07-01T21:19:24.995Z,101075.18
2018-07-01T21:21:59.793Z,101074.23
2018-07-01T21:24:32.745Z,101071.35
2018-07-01T21:27:08.363Z,101082.70
2018-07-01T21:29:42.601Z,101081.73
2018-07-01T21:32:18.355Z,101072.55
2018-07-01T21:34:51.314Z,101087.83
2018-07-01T21:37:24.698Z,101091.00
2018-07-01T21:40:07.825Z,101102.42
2018-07-01T21:42:48.016Z,101096.06
2018-07-01T21:45:22.886Z,101100.27
2018-07-01T21:47:56.134Z,101103.92
2018-07-01T21:50:32.484Z,101107.59
2018-07-01T21:53:07.276Z,101110.84
2018-07-01T21:55:41.555Z,101107.80
2018-07-01T21:58:18.713Z,101112.31
2018-07-01T22:00:51.270Z,101110.43
2018-07-01T22:03:27.887Z,101114.39
2018-07-01T22:06:04.263Z,101105.72
2018-07-01T22:08:38.331Z,101109.18
2018-07-01T22:11:55.448Z,101116.09
2018-07-01T22:14:28.835Z,101117.77
2018-07-01T22:17:06.162Z,101111.48
2018-07-01T22:19:39.816Z,101120.79
2018-07-01T22:22:17.589Z,101124.22
2018-07-01T22:24:51.099Z,101116.37
2018-07-01T22:27:24.975Z,101121.60
2018-07-01T22:29:56.657Z,101123.17
2018-07-01T22:32:29.813Z,101117.13
2018-07-01T22:35:04.624Z,101113.24
2018-07-01T22:37:39.341Z,101110.83
2018-07-01T22:40:12.117Z,101112.62
2018-07-01T22:42:42.884Z,101114.81
2018-07-01T22:48:09.337Z,101122.59
2018-07-01T22:50:50.384Z,101120.92
2018-07-01T22:53:24.457Z,101118.80
2018-07-01T22:55:58.201Z,101113.27
2018-07-01T22:58:32.788Z,101116.38
2018-07-01T23:01:16.055Z,101118.48
2018-07-01T23:03:49.312Z,101121.98
2018-07-01T23:06:20.669Z,101120.84
2018-07-01T23:08:53.584Z,101119.27
2018-07-01T23:11:25.640Z,101118.43
2018-07-01T23:13:59.281Z,101115.48
2018-07-01T23:16:33.513Z,101117.36
2018-07-01T23:19:06.302Z,101117.36
2018-07-01T23:21:38.920Z,101124.59
2018-07-01T23:24:12.467Z,101120.97
2018-07-01T23:26:44.688Z,101116.45
2018-07-01T23:31:54.303Z,101116.23
2018-07-01T23:34:32.764Z,101114.63
2018-07-01T23:37:06.386Z,101102.63
2018-07-01T23:39:39.610Z,101109.19
2018-07-01T23:42:15.226Z,101110.64
2018-07-01T23:44:45.852Z,101108.48
2018-07-01T23:47:22.215Z,101103.45
2018-07-01T23:49:56.027Z,101099.80
2018-07-01T23:52:28.145Z,101101.89
2018-07-01T23:55:02.034Z,101089.27
2018-07-01T23:57:35.542Z,101092.22
